Pittsboro, North Carolina
Current Conditions -  °F | °C
As of 4:35 PM on Friday 24 Oct 2014 (Local Time) from KTTA Reporting Station
Clear Clear  
Wind Chill: 69°   Ceiling: Unl
Heat Index: 69°   Visibility: 10mi
Dew Point: 45°   Wind: 3mph
Humidity: 43%   Direction: 210°SSW
Pressure: 29.97"   Gusts: NA
Location:  35.72°N, 79.18°W
Report Text: KTTA 242035Z AUTO 21003KT 10SM CLR 21/07 A2997 RMK AO2 T02050074
Loading
Personal Weather Stations






























Interactive Weather Map
Tropical Storm Tracking
New forecast layout! Learn more

10-Day Weather Forecast

Advertisements
Track Severe Weather on mobile